VOML/IXE METAR and TAF weather

Enter ICAO airport designator
Station Type Date Time Source
VOML METAR 2018/12/15 04:00 UTC NOAA

VOML 150400Z 00000KT 6000 NSC 27/18 Q1013 NOSIG


Station Type Date Time Source
VOML Decoded METAR 2018/12/15 04:00 UTC NOAA

Mangalore / Bajpe, India (VOML) 12-55N 074-53E 102M
Dec 14, 2018 - 11:00 PM EST / 2018.12.15 0400 UTC
Wind: Calm:0
Visibility: 3 mile(s):0
Temperature: 80 F (27 C)
Dew Point: 64 F (18 C)
Relative Humidity: 57%
Pressure (altimeter): 29.91 in. Hg (1013 hPa)
ob: VOML 150400Z 00000KT 6000 NSC 27/18 Q1013 NOSIG
cycle: 4

Station Type Date Time Source
VOML TAF 2018/12/14 18:00 UTC NOAA

TAF VOML 141700Z 1418/1524 VRB02KT 6000 FEW015
BECMG 1422/1423 09005KT
TEMPO 1500/1503 3000 BR SCT006
BECMG 1508/1509 29010KT
BECMG 1514/1515 VRB02KT


Example: see airport list